Map

Track Data

SID SEASON NUMBER BASIN SUBBASIN NAME ISO_TIME NATURE LAT LON WMO_WIND WMO_PRES WMO_AGENCY TRACK_TYPE DIST2LAND LANDFALL IFLAG USA_AGENCY USA_ATCF_ID USA_LAT USA_LON USA_RECORD USA_STATUS USA_WIND USA_PRES USA_SSHS USA_R34_NE USA_R34_SE USA_R34_SW USA_R34_NW USA_R50_NE USA_R50_SE USA_R50_SW USA_R50_NW USA_R64_NE USA_R64_SE USA_R64_SW USA_R64_NW USA_POCI USA_ROCI USA_RMW USA_EYE TOKYO_LAT TOKYO_LON TOKYO_GRADE TOKYO_WIND TOKYO_PRES TOKYO_R50_DIR TOKYO_R50_LONG TOKYO_R50_SHORT TOKYO_R30_DIR TOKYO_R30_LONG TOKYO_R30_SHORT TOKYO_LAND CMA_LAT CMA_LON CMA_CAT CMA_WIND CMA_PRES HKO_LAT HKO_LON HKO_CAT HKO_WIND HKO_PRES NEWDELHI_LAT NEWDELHI_LON NEWDELHI_GRADE NEWDELHI_WIND NEWDELHI_PRES NEWDELHI_CI NEWDELHI_DP NEWDELHI_POCI REUNION_LAT REUNION_LON REUNION_TYPE REUNION_WIND REUNION_PRES REUNION_TNUM REUNION_CI REUNION_RMW REUNION_R34_NE REUNION_R34_SE REUNION_R34_SW REUNION_R34_NW REUNION_R50_NE REUNION_R50_SE REUNION_R50_SW REUNION_R50_NW REUNION_R64_NE REUNION_R64_SE REUNION_R64_SW REUNION_R64_NW BOM_LAT BOM_LON BOM_TYPE BOM_WIND BOM_PRES BOM_TNUM BOM_CI BOM_RMW BOM_R34_NE BOM_R34_SE BOM_R34_SW BOM_R34_NW BOM_R50_NE BOM_R50_SE BOM_R50_SW BOM_R50_NW BOM_R64_NE BOM_R64_SE BOM_R64_SW BOM_R64_NW BOM_ROCI BOM_POCI BOM_EYE BOM_POS_METHOD BOM_PRES_METHOD NADI_LAT NADI_LON NADI_CAT NADI_WIND NADI_PRES WELLINGTON_LAT WELLINGTON_LON WELLINGTON_WIND WELLINGTON_PRES DS824_LAT DS824_LON DS824_STAGE DS824_WIND DS824_PRES TD9636_LAT TD9636_LON TD9636_STAGE TD9636_WIND TD9636_PRES TD9635_LAT TD9635_LON TD9635_WIND TD9635_PRES TD9635_ROCI NEUMANN_LAT NEUMANN_LON NEUMANN_CLASS NEUMANN_WIND NEUMANN_PRES MLC_LAT MLC_LON MLC_CLASS MLC_WIND MLC_PRES USA_GUST BOM_GUST BOM_GUST_PER REUNION_GUST REUNION_GUST_PER USA_SEAHGT USA_SEARAD_NE USA_SEARAD_SE USA_SEARAD_SW USA_SEARAD_NW STORM_SPEED STORM_DIR
1949046S14056 1949 15 SI MM NOT_NAMED 1949-02-15 06:00:00 NR -13.9000 55.7000 reunion main 578 533 _____O________ -1 -13.9000 55.7000 99 9.90000 8 254
1949046S14056 1949 15 SI MM NOT_NAMED 1949-02-15 09:00:00 NR -14.0049 55.3128 main 533 499 _____P________ -1 -14.0049 55.3128 99 8 254
1949046S14056 1949 15 SI MM NOT_NAMED 1949-02-15 12:00:00 NR -14.1089 54.9312 main 489 455 _____P________ -1 -14.1089 54.9312 99 8 254
1949046S14056 1949 15 SI MM NOT_NAMED 1949-02-15 15:00:00 NR -14.2117 54.5613 main 455 406 _____P________ -1 -14.2117 54.5613 99 8 274
1949046S14056 1949 15 SI MM NOT_NAMED 1949-02-15 18:00:00 TS -14.0503 54.1195 main 406 379 O____P___OO___ jtwc_sh SH161949 -13.7000 54.0000 -1 -14.3131 54.2091 99 -13.7000 54.0000 TC -13.7000 54.0000 7 8 285
1949046S14056 1949 15 SI MM NOT_NAMED 1949-02-15 21:00:00 TS -14.0127 53.8018 main 379 349 P____P___PP___ SH161949 -13.7401 53.7425 -1 -14.4127 53.8808 99 -13.7401 53.7425 TC -13.7580 53.7625 7 6 273
1949046S14056 1949 15 SI MM NOT_NAMED 1949-02-16 00:00:00 TS -14.0239 53.5323 main 349 325 O____P___OP___ jtwc_sh SH161949 -13.8000 53.5000 -1 -14.5106 53.5825 99 -13.8000 53.5000 TC -13.8227 53.5300 7 5 263
1949046S14056 1949 15 SI MM NOT_NAMED 1949-02-16 03:00:00 TS -14.0731 53.2994 main 325 301 P____P___PP___ SH161949 -13.8925 53.2850 -1 -14.6064 53.3202 99 -13.8925 53.2850 TC -13.9011 53.3075 7 4 250
1949046S14056 1949 15 SI MM NOT_NAMED 1949-02-16 06:00:00 TS -14.1750 53.1000 reunion main 301 277 O____O___OO___ jtwc_sh SH161949 -14.0000 53.1000 -1 -14.7000 53.1000 99 9.90000 -14.0000 53.1000 TC 35 -14.0000 53.1000 2 4 241
1949046S14056 1949 15 SI MM NOT_NAMED 1949-02-16 09:00:00 TS -14.2748 52.9307 main 277 263 P____P___PP___ SH161949 -14.0925 52.9425 -1 -14.7914 52.9257 99 -14.0925 52.9425 TC 35 -14.1228 52.9123 2 4 236
1949046S14056 1949 15 SI MM NOT_NAMED 1949-02-16 12:00:00 TS -14.3846 52.7849 main 263 239 O____P___OP___ jtwc_sh SH161949 -14.2000 52.8000 -1 -14.8810 52.7919 99 -14.2000 52.8000 TC 35 -14.2574 52.7476 2 4 229
1949046S14056 1949 15 SI MM NOT_NAMED 1949-02-16 15:00:00 TS -14.5181 52.6425 main 239 225 P____P___PP___ SH161949 -14.3575 52.6350 -1 -14.9691 52.6906 99 -14.3575 52.6350 TC 35 -14.3884 52.6091 2 4 224
1949046S14056 1949 15 SI MM NOT_NAMED 1949-02-16 18:00:00 TS -14.6390 52.5285 main 225 222 O____P___OO___ jtwc_sh SH161949 -14.5000 52.5000 -1 -15.0561 52.6142 99 -14.5000 52.5000 TC 35 -14.5000 52.5000 2 3 222
1949046S14056 1949 15 SI MM NOT_NAMED 1949-02-16 21:00:00 TS -14.7079 52.4655 main 222 209 P____P___PP___ SH161949 -14.5650 52.4350 -1 -15.1424 52.5547 99 -14.5650 52.4350 TC 35 -14.5593 52.4373 2 2 220
1949046S14056 1949 15 SI MM NOT_NAMED 1949-02-17 00:00:00 TS -14.7570 52.4261 main 209 209 O____P___OP___ jtwc_sh SH161949 -14.6000 52.4000 -1 -15.2282 52.5045 99 -14.6000 52.4000 TC 35 -14.5999 52.3998 2 1 219
1949046S14056 1949 15 SI MM NOT_NAMED 1949-02-17 03:00:00 TS -14.8099 52.3869 main 209 196 P____P___PP___ SH161949 -14.6425 52.3650 -1 -15.3140 52.4555 99 -14.6425 52.3650 TC 35 -14.6405 52.3623 2 2 220
1949046S14056 1949 15 SI MM NOT_NAMED 1949-02-17 06:00:00 TS -14.8750 52.3250 reunion main 196 183 O____O___OO___ jtwc_sh SH161949 -14.7000 52.3000 -1 -15.4000 52.4000 99 9.90000 -14.7000 52.3000 TC 35 -14.7000 52.3000 2 2 230
1949046S14056 1949 15 SI MM NOT_NAMED 1949-02-17 09:00:00 TS -14.9615 52.2037 main 183 172 P____P___PP___ SH161949 -14.7850 52.1650 -1 -15.4683 52.3139 99 -14.7850 52.1650 TC 35 -14.8076 52.1707 2 3 233
1949046S14056 1949 15 SI MM NOT_NAMED 1949-02-17 12:00:00 TS -15.0673 52.0605 main 172 150 O____P___OP___ jtwc_sh SH161949 -14.9000 52.0000 -1 -15.5342 52.2269 99 -14.9000 52.0000 TC 35 -14.9351 52.0152 2 4 230
1949046S14056 1949 15 SI MM NOT_NAMED 1949-02-17 15:00:00 TS -15.1930 51.9186 main 150 139 P____P___PP___ SH161949 -15.0500 51.8425 -1 -15.6017 52.1374 99 -15.0500 51.8425 TC 35 -15.0701 51.8520 2 4 226
1949046S14056 1949 15 SI MM NOT_NAMED 1949-02-17 18:00:00 TS -15.3187 51.7860 main 139 128 O____P___OO___ jtwc_sh SH161949 -15.2000 51.7000 -1 -15.6747 52.0440 99 -15.2000 51.7000 TC 35 -15.2000 51.7000 2 3 226
1949046S14056 1949 15 SI MM NOT_NAMED 1949-02-17 21:00:00 TS -15.4147 51.6819 main 128 117 P____P___PP___ SH161949 -15.3075 51.5925 -1 -15.7572 51.9451 99 -15.3075 51.5925 TC 35 -15.2868 51.5976 2 3 226
1949046S14056 1949 15 SI MM NOT_NAMED 1949-02-18 00:00:00 TS -15.5057 51.5866 main 118 107 O____P___OP___ jtwc_sh SH161949 -15.4000 51.5000 -1 -15.8529 51.8392 99 -15.4000 51.5000 TC 35 -15.3699 51.5072 2 3 225
1949046S14056 1949 15 SI MM NOT_NAMED 1949-02-18 03:00:00 TS -15.6010 51.4882 main 109 99 P____P___PP___ SH161949 -15.4850 51.4074 -1 -15.9659 51.7247 99 -15.4850 51.4074 TC 35 -15.4680 51.4132 2 3 223
1949046S14056 1949 15 SI MM NOT_NAMED 1949-02-18 06:00:00 TS -15.7250 51.3750 reunion main 102 91 O____O___OO___ jtwc_sh SH161949 -15.6000 51.3000 -1 -16.1000 51.6000 99 9.90000 -15.6000 51.3000 TC 35 -15.6000 51.3000 2 4 219
1949046S14056 1949 15 SI MM NOT_NAMED 1949-02-18 09:00:00 TS -15.9005 51.2340 main 91 87 P____P___PP___ SH161949 -15.7775 51.1650 -1 -16.2661 51.4553 99 -15.7775 51.1650 TC 35 -15.7810 51.1506 2 5 217
1949046S14056 1949 15 SI MM NOT_NAMED 1949-02-18 12:00:00 TS -16.1127 51.0698 main 91 81 O____P___OP___ jtwc_sh SH161949 -16.0000 51.0000 -1 -16.4534 51.2993 99 -16.0000 51.0000 TC 35 -15.9975 50.9800 2 6 217
1949046S14056 1949 15 SI MM NOT_NAMED 1949-02-18 15:00:00 TS -16.3420 50.8861 main 81 77 P____P___PP___ SH161949 -16.2350 50.8075 -1 -16.6577 51.1350 99 -16.2350 50.8075 TC 35 -16.2403 50.7943 2 6 217
1949046S14056 1949 15 SI MM NOT_NAMED 1949-02-18 18:00:00 TS -16.5938 50.6914 main 85 74 O____P___OO___ jtwc_sh SH161949 -16.5000 50.6000 -1 -16.8754 50.9657 99 -16.5000 50.6000 TC 35 -16.5000 50.6000 2 6 215
1949046S14056 1949 15 SI MM NOT_NAMED 1949-02-18 21:00:00 TS -16.8688 50.4974 main 75 62 P____P___PP___ SH161949 -16.8000 50.4000 -1 -17.1023 50.7944 99 -16.8000 50.4000 TC 30 -16.7729 50.3952 2 7 214
1949046S14056 1949 15 SI MM NOT_NAMED 1949-02-19 00:00:00 TS -17.1481 50.3024 main 62 61 O____P___OP___ jtwc_sh SH161949 -17.1000 50.2000 -1 -17.3346 50.6242 99 -17.1000 50.2000 TC 25 -17.0576 50.1852 2 7 215
1949046S14056 1949 15 SI MM NOT_NAMED 1949-02-19 03:00:00 TS -17.4092 50.1065 main 71 43 P____P___PP___ SH161949 -17.3650 49.9925 -1 -17.5685 50.4583 99 -17.3650 49.9925 TC 25 -17.3385 49.9827 2 6 216
1949046S14056 1949 15 SI MM NOT_NAMED 1949-02-19 06:00:00 TS -17.6500 49.9250 reunion main 43 33 O____O___OO___ jtwc_sh SH161949 -17.6000 49.8000 -1 -17.8000 50.3000 99 9.90000 -17.6000 49.8000 TC 25 -17.6000 49.8000 1 6 215
1949046S14056 1949 15 SI MM NOT_NAMED 1949-02-19 09:00:00 TS -17.8645 49.7666 main 38 21 P____P___PP___ SH161949 -17.8075 49.6349 -1 -18.0258 50.1515 99 -17.8075 49.6349 TC 30 -17.8174 49.6451 1 5 214
1949046S14056 1949 15 SI MM NOT_NAMED 1949-02-19 12:00:00 TS -18.0671 49.6301 main 21 10 O____P___OP___ jtwc_sh SH161949 -18.0000 49.5000 -1 -18.2533 50.0081 99 -18.0000 49.5000 TC 35 -18.0149 49.5122 1 5 211
1949046S14056 1949 15 SI MM NOT_NAMED 1949-02-19 15:00:00 TS -18.2674 49.5135 main 15 10 P____P___PP___ SH161949 -18.1925 49.3924 -1 -18.4797 49.8708 99 -18.1925 49.3924 TC 30 -18.2049 49.3982 1 5 207
1949046S14056 1949 15 SI MM NOT_NAMED 1949-02-19 18:00:00 TS -18.4756 49.4100 main 15 10 O____P___OO___ jtwc_sh SH161949 -18.4000 49.3000 -1 -18.7024 49.7401 99 -18.4000 49.3000 TC 25 -18.4000 49.3000 1 5 205
1949046S14056 1949 15 SI MM NOT_NAMED 1949-02-19 21:00:00 TS -18.7111 49.3021 main 10 10 P____P___PP___ SH161949 -18.6500 49.1925 -1 -18.9185 49.6169 99 -18.6500 49.1925 TC 25 -18.6259 49.2065 1 5 202
1949046S14056 1949 15 SI MM NOT_NAMED 1949-02-20 00:00:00 TS -18.9457 49.2074 main 10 10 O____P___OP___ jtwc_sh SH161949 -18.9000 49.1000 -1 -19.1253 49.5020 99 -18.9000 49.1000 TC 25 -18.8575 49.1274 1 5 200
1949046S14056 1949 15 SI MM NOT_NAMED 1949-02-20 03:00:00 TS -19.1551 49.1352 main 10 10 P____P___PP___ SH161949 -19.1075 49.0424 -1 -19.3200 49.3961 99 -19.1075 49.0424 TC 30 -19.0853 49.0596 1 4 197
1949046S14056 1949 15 SI MM NOT_NAMED 1949-02-20 06:00:00 TS -19.3500 49.0750 reunion main 15 10 O____O___OO___ jtwc_sh SH161949 -19.3000 49.0000 -1 -19.5000 49.3000 99 9.90000 -19.3000 49.0000 TC 35 -19.3000 49.0000 2 4 197
1949046S14056 1949 15 SI MM NOT_NAMED 1949-02-20 09:00:00 TS -19.5429 49.0127 main 15 15 P____P___PP___ SH161949 -19.5075 48.9500 -1 -19.6632 49.2082 99 -19.5075 48.9500 TC 35 -19.4934 48.9427 2 4 197
1949046S14056 1949 15 SI MM NOT_NAMED 1949-02-20 12:00:00 TS -19.7212 48.9547 main 20 10 O____P___OP___ jtwc_sh SH161949 -19.7000 48.9000 -1 -19.8123 49.1263 99 -19.7000 48.9000 TC 35 -19.6725 48.8924 2 3 197
1949046S14056 1949 15 SI MM NOT_NAMED 1949-02-20 15:00:00 TS -19.8723 48.8999 main 10 10 P____P___PP___ SH161949 -19.8500 48.8500 -1 -19.9490 49.0537 99 -19.8500 48.8500 TC 35 -19.8403 48.8459 2 3 200
1949046S14056 1949 15 SI MM NOT_NAMED 1949-02-20 18:00:00 TS -20.0187 48.8473 main 0 0 O____P___OO___ jtwc_sh SH161949 -20.0000 48.8000 -1 -20.0748 48.9894 99 -20.0000 48.8000 TC 35 -20.0000 48.8000 2 3 196
1949046S14056 1949 15 SI MM NOT_NAMED 1949-02-20 21:00:00 TS -20.1949 48.7937 main 10 10 P____P___PP___ SH161949 -20.2075 48.7500 -1 -20.1912 48.9327 99 -20.2075 48.7500 TC 35 -20.1734 48.7419 2 4 196
1949046S14056 1949 15 SI MM NOT_NAMED 1949-02-21 00:00:00 TS -20.3593 48.7420 main 10 10 O____P___OP___ jtwc_sh SH161949 -20.4000 48.7000 -1 -20.2999 48.8828 99 -20.4000 48.7000 TC 35 -20.3375 48.6851 2 3 199
1949046S14056 1949 15 SI MM NOT_NAMED 1949-02-21 03:00:00 TS -20.4825 48.6899 main 15 15 P____P___PP___ SH161949 -20.5225 48.6425 -1 -20.4023 48.8388 99 -20.5225 48.6425 TC 35 -20.4828 48.6357 2 2 203
1949046S14056 1949 15 SI MM NOT_NAMED 1949-02-21 06:00:00 TS -20.5750 48.6500 reunion main 20 10 O____O___OO___ jtwc_sh SH161949 -20.6000 48.6000 -1 -20.5000 48.8000 99 9.90000 -20.6000 48.6000 TC 35 -20.6000 48.6000 2 2 199
1949046S14056 1949 15 SI MM NOT_NAMED 1949-02-21 09:00:00 TS -20.6497 48.6334 main 10 10 P____P___PP___ SH161949 -20.6575 48.5925 -1 -20.6052 48.7590 99 -20.6575 48.5925 TC 35 -20.6787 48.5896 2 1 0
1949046S14056 1949 15 SI MM NOT_NAMED 1949-02-21 12:00:00 TS -20.7087 48.6292 main 15 15 O____P___OP___ jtwc_sh SH161949 -20.7000 48.6000 -1 -20.7046 48.7242 99 -20.7000 48.6000 TC 35 -20.7300 48.5924 2 1 191
1949046S14056 1949 15 SI MM NOT_NAMED 1949-02-21 15:00:00 TS -20.7662 48.6272 main 20 20 P____P___PP___ SH161949 -20.7500 48.6075 -1 -20.7986 48.6947 99 -20.7500 48.6075 TC 35 -20.7662 48.5990 2 1 0
1949046S14056 1949 15 SI MM NOT_NAMED 1949-02-21 18:00:00 TS -20.8219 48.6174 main 20 20 O____P___OO___ jtwc_sh SH161949 -20.8000 48.6000 -1 -20.8874 48.6698 99 -20.8000 48.6000 TC 35 -20.8000 48.6000 2 1 194
1949046S14056 1949 15 SI MM NOT_NAMED 1949-02-21 21:00:00 TS -20.8814 48.5817 main 20 10 P____P___PP___ SH161949 -20.8500 48.5500 -1 -20.9716 48.6486 99 -20.8500 48.5500 TC 35 -20.8541 48.5781 2 1 211
1949046S14056 1949 15 SI MM NOT_NAMED 1949-02-22 00:00:00 TS -20.9398 48.5451 main 10 10 O____P___OP___ jtwc_sh SH161949 -20.9000 48.5000 -1 -21.0515 48.6305 99 -20.9000 48.5000 TC 35 -20.9075 48.5500 2 1 195
1949046S14056 1949 15 SI MM NOT_NAMED 1949-02-22 03:00:00 TS -20.9962 48.5304 main 10 10 P____P___PP___ SH161949 -20.9500 48.4925 -1 -21.1275 48.6145 99 -20.9500 48.4925 TC 35 -20.9572 48.5219 2 1 190
1949046S14056 1949 15 SI MM NOT_NAMED 1949-02-22 06:00:00 TS -21.0500 48.5250 reunion main 10 10 O____O___OO___ jtwc_sh SH161949 -21.0000 48.5000 -1 -21.2000 48.6000 99 9.90000 -21.0000 48.5000 TC 35 -21.0000 48.5000 2 1 185
1949046S14056 1949 15 SI MM NOT_NAMED 1949-02-22 09:00:00 TS -21.1004 48.5208 main 15 15 P____P___PP___ SH161949 -21.0575 48.5000 -1 -21.2546 48.5903 99 -21.0575 48.5000 TC 35 -21.0322 48.4928 2 1 0
1949046S14056 1949 15 SI MM NOT_NAMED 1949-02-22 12:00:00 TS -21.1401 48.5191 main 15 15 O____P___OP___ jtwc_sh SH161949 -21.1000 48.5000 -1 -21.3028 48.5837 99 -21.1000 48.5000 TC 35 -21.0575 48.4925 2 1 0
1949046S14056 1949 15 SI MM NOT_NAMED 1949-02-22 15:00:00 TS -21.1608 48.5186 main 20 20 P____P___PP___ SH161949 -21.1075 48.5000 -1 -21.3490 48.5783 99 -21.1075 48.5000 TC 35 -21.0791 48.4959 2 0 210
1949046S14056 1949 15 SI MM NOT_NAMED 1949-02-22 18:00:00 TS -21.1744 48.5180 main 20 20 O____P___OO___ jtwc_sh SH161949 -21.1000 48.5000 -1 -21.3974 48.5720 99 -21.1000 48.5000 TC 35 -21.1000 48.5000 2 0 0
1949046S14056 1949 15 SI MM NOT_NAMED 1949-02-22 21:00:00 TS -21.1815 48.5157 main 20 20 P____P___PP___ SH161949 -21.0925 48.5000 -1 -21.4525 48.5630 99 -21.0925 48.5000 TC 35 -21.0884 48.5000 2 0 0
1949046S14056 1949 15 SI MM NOT_NAMED 1949-02-23 00:00:00 TS -21.2002 48.5123 main 20 20 O____P___OP___ jtwc_sh SH161949 -21.1000 48.5000 -1 -21.5184 48.5493 99 -21.1000 48.5000 TC 35 -21.0825 48.5000 2 1 0
1949046S14056 1949 15 SI MM NOT_NAMED 1949-02-23 03:00:00 TS -21.2374 48.5072 main 20 20 P____P___PP___ SH161949 -21.1200 48.5000 -1 -21.5995 48.5289 99 -21.1200 48.5000 TC 35 -21.1103 48.5000 2 1 184
1949046S14056 1949 15 SI MM NOT_NAMED 1949-02-23 06:00:00 TS -21.3250 48.5000 reunion main 20 20 O____O___OO___ jtwc_sh SH161949 -21.2000 48.5000 -1 -21.7000 48.5000 99 9.90000 -21.2000 48.5000 TC 35 -21.2000 48.5000 2 2 181
1949046S14056 1949 15 SI MM NOT_NAMED 1949-02-23 09:00:00 TS -21.4844 48.4998 main 23 23 P____P___PP___ SH161949 -21.3625 48.5000 -1 -21.8193 48.4953 99 -21.3625 48.5000 TC 35 -21.3934 48.5040 2 4 0
1949046S14056 1949 15 SI MM NOT_NAMED 1949-02-23 12:00:00 TS -21.7009 48.4986 main 30 30 O____P___OP___ jtwc_sh SH161949 -21.6000 48.5000 -1 -21.9560 48.4870 99 -21.6000 48.5000 TC 35 -21.6475 48.5074 2 5 0
1949046S14056 1949 15 SI MM NOT_NAMED 1949-02-23 15:00:00 TS -21.9593 48.4939 main 38 38 P____P___PP___ SH161949 -21.9000 48.5000 -1 -22.1092 48.4687 99 -21.9000 48.5000 TC 35 -21.9278 48.5071 2 5 181
1949046S14056 1949 15 SI MM NOT_NAMED 1949-02-23 18:00:00 TS -22.2196 48.4835 main 46 46 O____P___OO___ jtwc_sh SH161949 -22.2000 48.5000 -1 -22.2783 48.4339 99 -22.2000 48.5000 TC 35 -22.2000 48.5000 2 5 0
1949046S14056 1949 15 SI MM NOT_NAMED 1949-02-23 21:00:00 TS -22.4227 48.4774 main 56 56 P____P___PP___ SH161949 -22.4150 48.5075 -1 -22.4627 48.3762 99 -22.4150 48.5075 TC 35 -22.3980 48.5183 2 4 0
1949046S14056 1949 15 SI MM NOT_NAMED 1949-02-24 00:00:00 TS -22.6116 48.4533 main 62 52 O____P___OP___ jtwc_sh SH161949 -22.6000 48.5000 -1 -22.6616 48.2891 99 -22.6000 48.5000 TC 35 -22.5847 48.5242 2 4 190
1949046S14056 1949 15 SI MM NOT_NAMED 1949-02-24 03:00:00 TS -22.8058 48.4047 main 61 51 P____P___PP___ SH161949 -22.7850 48.4799 -1 -22.8743 48.1659 99 -22.7850 48.4799 TC 35 -22.7791 48.4930 2 4 199
1949046S14056 1949 15 SI MM NOT_NAMED 1949-02-24 06:00:00 TS -23.0250 48.3000 reunion main 52 40 O____O___OO___ jtwc_sh SH161949 -23.0000 48.4000 -1 -23.1000 48.0000 99 9.90000 -23.0000 48.4000 TC 35 -23.0000 48.4000 2 6 209
1949046S14056 1949 15 SI MM NOT_NAMED 1949-02-24 09:00:00 TS -23.2983 48.1091 main 40 23 P____P___PP___ SH161949 -23.2850 48.2375 -1 -23.3319 47.7180 99 -23.2850 48.2375 TC 35 -23.2914 48.2435 2 7 216
1949046S14056 1949 15 SI MM NOT_NAMED 1949-02-24 12:00:00 TS -23.5964 47.8512 main 30 10 O____P___OP___ jtwc_sh SH161949 -23.6000 48.0000 -1 -23.5784 47.3845 99 -23.6000 48.0000 TC 35 -23.6071 48.0205 2 8 220
1949046S14056 1949 15 SI MM NOT_NAMED 1949-02-24 15:00:00 TS -23.9001 47.5577 main 10 0 P____P___PP___ SH161949 -23.9224 47.7375 -1 -23.8364 47.0188 99 -23.9224 47.7375 TC 35 -23.9193 47.7371 2 8 225
1949046S14056 1949 15 SI MM NOT_NAMED 1949-02-24 18:00:00 TS -24.1757 47.2101 main 0 0 O____P___OO___ jtwc_sh SH161949 -24.2000 47.4000 -1 -24.1029 46.6405 99 -24.2000 47.4000 TC 35 -24.2000 47.4000 2 8 236
1949046S14056 1949 15 SI MM NOT_NAMED 1949-02-24 21:00:00 TS -24.3651 46.7917 main 0 0 P____P___PP___ SH161949 -24.3651 46.9647 -1 -24.3750 46.2694 99 -24.3651 46.9647 TC 35 -24.3552 46.9679 2 9 245
1949046S14056 1949 15 SI MM NOT_NAMED 1949-02-25 00:00:00 TS -24.5336 46.3556 main 0 0 O____P___OP___ jtwc_sh SH161949 -24.5000 46.5000 -1 -24.6502 45.9255 99 -24.5000 46.5000 TC 35 -24.4841 46.4969 2 8 245
1949046S14056 1949 15 SI MM NOT_NAMED 1949-02-25 03:00:00 TS -24.7167 45.9478 main 0 0 P____P___PP___ SH161949 -24.6476 46.0549 -1 -24.9260 45.6289 99 -24.6476 46.0549 TC 35 -24.6458 46.0525 2 8 236
1949046S14056 1949 15 SI MM NOT_NAMED 1949-02-25 06:00:00 TS -24.9750 45.6250 reunion main 0 0 O____O___OO___ jtwc_sh SH161949 -24.9000 45.7000 -1 -25.2000 45.4000 99 9.90000 -24.9000 45.7000 TC 35 -24.9000 45.7000 2 8 215
1949046S14056 1949 15 SI MM NOT_NAMED 1949-02-25 09:00:00 TS -25.3766 45.4470 main 0 0 P____P___PP___ SH161949 -25.3474 45.4901 -1 -25.4920 45.3116 99 -25.3474 45.4901 TC 35 -25.3196 45.4961 2 9 195
1949046S14056 1949 15 SI MM NOT_NAMED 1949-02-25 12:00:00 TS -25.8562 45.3701 main 33 33 O____P___OP___ jtwc_sh SH161949 -25.9000 45.4000 -1 -25.7883 45.2876 99 -25.9000 45.4000 TC 35 -25.8367 45.3928 2 10 185
1949046S14056 1949 15 SI MM NOT_NAMED 1949-02-25 15:00:00 TS -26.3445 45.3522 main 78 78 P____P___PP___ SH161949 -26.4425 45.3624 -1 -26.0825 45.3157 99 -26.4425 45.3624 TC 35 -26.4105 45.3681 2 10 179
1949046S14056 1949 15 SI MM NOT_NAMED 1949-02-25 18:00:00 TS -26.8421 45.3959 main 134 134 O____P___OO___ jtwc_sh SH161949 -27.0000 45.4000 -1 -26.3683 45.3836 99 -27.0000 45.4000 TC 35 -27.0000 45.4000 2 10 174
1949046S14056 1949 15 SI MM NOT_NAMED 1949-02-25 21:00:00 TS -27.3226 45.4792 main 189 189 P____P___PP___ SH161949 -27.5500 45.4849 -1 -26.6394 45.4787 99 -27.5500 45.4849 TC 35 -27.5510 45.4683 2 10 170
1949046S14056 1949 15 SI MM NOT_NAMED 1949-02-26 00:00:00 TS -27.7992 45.5928 main 245 245 O____P___OP___ jtwc_sh SH161949 -28.1000 45.6000 -1 -26.8892 45.5884 99 -28.1000 45.6000 TC 35 -28.1076 45.5827 2 10 168
1949046S14056 1949 15 SI MM NOT_NAMED 1949-02-26 03:00:00 TS -28.2717 45.7125 main 302 302 P____P___PP___ SH161949 -28.6575 45.7222 -1 -27.1115 45.6998 99 -28.6575 45.7222 TC 35 -28.6604 45.7059 2 9 169
1949046S14056 1949 15 SI MM NOT_NAMED 1949-02-26 06:00:00 TS -28.7250 45.8000 reunion main 347 347 O____O___OO___ jtwc_sh SH161949 -29.2000 45.8000 -1 -27.3000 45.8000 99 9.90000 -29.2000 45.8000 TC 35 -29.2000 45.8000 2 9 175
1949046S14056 1949 15 SI MM NOT_NAMED 1949-02-26 09:00:00 TS -29.1509 45.7876 main 403 403 P____P___PP___ SH161949 -29.7075 45.7654 -1 -27.4502 45.8786 99 -29.7075 45.7654 TC 35 -29.7383 45.7409 2 8 182
1949046S14056 1949 15 SI MM NOT_NAMED 1949-02-26 12:00:00 TS -29.5561 45.7482 main 447 447 O____P___OP___ jtwc_sh SH161949 -30.2000 45.7000 -1 -27.5653 45.9359 99 -30.2000 45.7000 TC 35 -30.2591 45.6570 2 8 185
1949046S14056 1949 15 SI MM NOT_NAMED 1949-02-26 15:00:00 TS -29.9613 45.7151 main 491 491 P____P___PP___ SH161949 -30.7223 45.6331 -1 -27.6503 45.9748 99 -30.7223 45.6331 TC 35 -30.7504 45.6192 2 8 0
1949046S14056 1949 15 SI MM NOT_NAMED 1949-02-26 18:00:00 TS -30.3276 45.7746 main 525 525 O____P___OO___ jtwc_sh SH161949 -31.2000 45.7000 -1 -27.7103 45.9984 99 -31.2000 45.7000 TC 35 -31.2000 45.7000 2 7 158
1949046S14056 1949 15 SI MM NOT_NAMED 1949-02-26 21:00:00 TS -30.6164 46.0222 main 560 560 P____P___PP___ SH161949 -31.5727 46.0323 -1 -27.7502 46.0096 99 -31.5727 46.0323 TC 35 -31.5699 46.0148 2 9 145
1949046S14056 1949 15 SI MM NOT_NAMED 1949-02-27 00:00:00 TS -31.0755 46.3893 main 620 620 O____P___OP___ jtwc_sh SH161949 -31.9000 46.5000 -1 -27.7752 46.0115 99 -31.9000 46.5000 TC 35 -31.9018 46.4514 2 12 145
1949046S14056 1949 15 SI MM NOT_NAMED 1949-02-27 03:00:00 TS -31.5994 46.8204 main 681 681 P____P___PP___ SH161949 -32.2351 46.9652 -1 -27.7901 46.0073 99 -32.2351 46.9652 TC 35 -32.2326 46.9373 2 14 146
1949046S14056 1949 15 SI MM NOT_NAMED 1949-02-27 06:00:00 TS -32.2308 47.2923 reunion main 757 757 O____O___OO___ jtwc_sh SH161949 -32.6000 47.4000 -1 -27.8000 46.0000 99 9.90000 -32.6000 47.4000 TC 35 -32.6000 47.4000 2 16 152
1949046S14056 1949 15 SI MM NOT_NAMED 1949-02-27 09:00:00 TS -33.0278 47.7239 main 852 852 P________PP___ SH161949 -33.0197 47.7231 -1 99 -33.0197 47.7231 TC 35 -33.0438 47.7257 2 14 155
1949046S14056 1949 15 SI MM NOT_NAMED 1949-02-27 12:00:00 TS -33.5104 48.0060 main 914 914 O________OP___ jtwc_sh SH161949 -33.5000 48.0000 -1 99 -33.5000 48.0000 TC 35 -33.5313 48.0179 2 11 155
1949046S14056 1949 15 SI MM NOT_NAMED 1949-02-27 15:00:00 TS -34.0410 48.2956 main 975 975 P________PP___ SH161949 -34.0349 48.2929 -1 99 -34.0349 48.2929 TC 35 -34.0532 48.3011 2 12 156
1949046S14056 1949 15 SI MM NOT_NAMED 1949-02-27 18:00:00 TS -34.6000 48.6000 main 1047 1047 O________OO___ jtwc_sh SH161949 -34.6000 48.6000 -1 99 -34.6000 48.6000 TC 35 -34.6000 48.6000 2 12 155
1949046S14056 1949 15 SI MM NOT_NAMED 1949-02-27 21:00:00 TS -35.1492 48.9352 main 1108 1108 P________PP___ SH161949 -35.1424 48.9356 -1 99 -35.1424 48.9356 TC 35 -35.1628 48.9344 2 13 153
1949046S14056 1949 15 SI MM NOT_NAMED 1949-02-28 00:00:00 TS -35.7122 49.3005 main 1183 1183 O________OP___ jtwc_sh SH161949 -35.7000 49.3000 -1 99 -35.7000 49.3000 TC 35 -35.7366 49.3016 2 13 152
1949046S14056 1949 15 SI MM NOT_NAMED 1949-02-28 03:00:00 TS -36.2992 49.6918 main 1258 1258 P________PP___ SH161949 -36.2903 49.6911 -1 99 -36.2903 49.6911 TC 35 -36.3170 49.6931 2 14 152
1949046S14056 1949 15 SI MM NOT_NAMED 1949-02-28 06:00:00 TS -36.9000 50.1000 main 1333 O________OO___ jtwc_sh SH161949 -36.9000 50.1000 -1 -36.9000 50.1000 TC 35 -36.9000 50.1000 2 14 151

About IBTrACS Database

This database is a web-friendly format of International Best Track Archive for Climate Stewardship (IBTrACS), a global best track data archive curated by NOAA dating back to 1842.

Updated: 2021-12-03